sensor_id;sensor_type;location;lat;lon;timestamp;temperature;humidity
14252;DHT22;7210;51.502;10.722;2022-10-16T00:01:42;13.40;99.90
14252;DHT22;7210;51.502;10.722;2022-10-16T00:04:10;13.30;99.90
14252;DHT22;7210;51.502;10.722;2022-10-16T00:06:39;13.30;99.90
14252;DHT22;7210;51.502;10.722;2022-10-16T00:09:06;13.30;99.90
14252;DHT22;7210;51.502;10.722;2022-10-16T00:11:36;13.20;99.90
14252;DHT22;7210;51.502;10.722;2022-10-16T00:14:07;13.20;99.90
14252;DHT22;7210;51.502;10.722;2022-10-16T00:16:37;13.10;99.90
14252;DHT22;7210;51.502;10.722;2022-10-16T00:19:04;13.10;99.90
14252;DHT22;7210;51.502;10.722;2022-10-16T00:21:32;13.00;99.90
14252;DHT22;7210;51.502;10.722;2022-10-16T00:24:04;13.00;99.90
14252;DHT22;7210;51.502;10.722;2022-10-16T00:26:35;13.00;99.90
14252;DHT22;7210;51.502;10.722;2022-10-16T00:29:04;13.00;99.90
14252;DHT22;7210;51.502;10.722;2022-10-16T00:31:32;13.10;99.90
14252;DHT22;7210;51.502;10.722;2022-10-16T00:34:00;13.10;99.90
14252;DHT22;7210;51.502;10.722;2022-10-16T00:36:28;13.20;99.90
14252;DHT22;7210;51.502;10.722;2022-10-16T00:38:57;13.20;99.90
14252;DHT22;7210;51.502;10.722;2022-10-16T00:41:28;13.30;99.90
14252;DHT22;7210;51.502;10.722;2022-10-16T00:43:58;13.40;99.90
14252;DHT22;7210;51.502;10.722;2022-10-16T00:46:28;13.40;99.90
14252;DHT22;7210;51.502;10.722;2022-10-16T00:49:03;13.40;99.90
14252;DHT22;7210;51.502;10.722;2022-10-16T00:51:36;13.40;99.90
14252;DHT22;7210;51.502;10.722;2022-10-16T00:54:09;13.40;99.90
14252;DHT22;7210;51.502;10.722;2022-10-16T00:56:46;13.40;99.90
14252;DHT22;7210;51.502;10.722;2022-10-16T00:59:16;13.40;99.90
14252;DHT22;7210;51.502;10.722;2022-10-16T01:01:46;13.40;99.90
14252;DHT22;7210;51.502;10.722;2022-10-16T01:04:14;13.50;99.90
14252;DHT22;7210;51.502;10.722;2022-10-16T01:06:46;13.50;99.90
14252;DHT22;7210;51.502;10.722;2022-10-16T01:09:25;13.50;99.90
14252;DHT22;7210;51.502;10.722;2022-10-16T01:12:06;13.50;99.90
14252;DHT22;7210;51.502;10.722;2022-10-16T01:14:43;13.50;99.90
14252;DHT22;7210;51.502;10.722;2022-10-16T01:17:18;13.50;99.90
14252;DHT22;7210;51.502;10.722;2022-10-16T01:20:03;13.60;99.90
14252;DHT22;7210;51.502;10.722;2022-10-16T01:22:41;13.60;99.90
14252;DHT22;7210;51.502;10.722;2022-10-16T01:25:25;13.60;99.90
14252;DHT22;7210;51.502;10.722;2022-10-16T01:28:05;13.50;99.90
14252;DHT22;7210;51.502;10.722;2022-10-16T01:30:37;13.50;99.90
14252;DHT22;7210;51.502;10.722;2022-10-16T01:33:12;13.60;99.90
14252;DHT22;7210;51.502;10.722;2022-10-16T01:35:47;13.60;99.90
14252;DHT22;7210;51.502;10.722;2022-10-16T01:38:21;13.60;99.90
14252;DHT22;7210;51.502;10.722;2022-10-16T01:40:57;13.60;99.90
14252;DHT22;7210;51.502;10.722;2022-10-16T01:43:37;13.60;99.90
14252;DHT22;7210;51.502;10.722;2022-10-16T01:46:08;13.70;99.90
14252;DHT22;7210;51.502;10.722;2022-10-16T01:48:37;13.70;99.90
14252;DHT22;7210;51.502;10.722;2022-10-16T01:51:07;13.70;99.90
14252;DHT22;7210;51.502;10.722;2022-10-16T01:53:37;13.70;99.90
14252;DHT22;7210;51.502;10.722;2022-10-16T01:56:10;13.80;99.90
14252;DHT22;7210;51.502;10.722;2022-10-16T01:58:44;13.80;99.90
14252;DHT22;7210;51.502;10.722;2022-10-16T02:01:19;13.90;99.90
14252;DHT22;7210;51.502;10.722;2022-10-16T02:03:51;14.00;99.90
14252;DHT22;7210;51.502;10.722;2022-10-16T02:06:23;14.00;99.90
14252;DHT22;7210;51.502;10.722;2022-10-16T02:08:56;14.10;99.90
14252;DHT22;7210;51.502;10.722;2022-10-16T02:11:24;14.10;99.90
14252;DHT22;7210;51.502;10.722;2022-10-16T02:13:55;14.10;99.90
14252;DHT22;7210;51.502;10.722;2022-10-16T02:16:34;14.10;99.90
14252;DHT22;7210;51.502;10.722;2022-10-16T02:19:03;14.20;99.90
14252;DHT22;7210;51.502;10.722;2022-10-16T02:21:38;14.20;99.90
14252;DHT22;7210;51.502;10.722;2022-10-16T02:24:13;14.30;99.90
14252;DHT22;7210;51.502;10.722;2022-10-16T02:26:49;14.30;99.90
14252;DHT22;7210;51.502;10.722;2022-10-16T02:29:25;14.30;99.90
14252;DHT22;7210;51.502;10.722;2022-10-16T02:31:56;14.30;99.90
14252;DHT22;7210;51.502;10.722;2022-10-16T02:34:27;14.40;99.90
14252;DHT22;7210;51.502;10.722;2022-10-16T02:37:01;14.50;99.90
14252;DHT22;7210;51.502;10.722;2022-10-16T02:39:32;14.50;99.90
14252;DHT22;7210;51.502;10.722;2022-10-16T02:42:01;14.40;99.90
14252;DHT22;7210;51.502;10.722;2022-10-16T02:44:30;14.40;99.90
14252;DHT22;7210;51.502;10.722;2022-10-16T02:46:57;14.40;99.90
14252;DHT22;7210;51.502;10.722;2022-10-16T02:49:25;14.40;99.90
14252;DHT22;7210;51.502;10.722;2022-10-16T02:51:52;14.40;99.90
14252;DHT22;7210;51.502;10.722;2022-10-16T02:54:19;14.40;99.90
14252;DHT22;7210;51.502;10.722;2022-10-16T02:56:47;14.40;99.90
14252;DHT22;7210;51.502;10.722;2022-10-16T02:59:14;14.40;99.90
14252;DHT22;7210;51.502;10.722;2022-10-16T03:01:43;14.40;99.90
14252;DHT22;7210;51.502;10.722;2022-10-16T03:04:10;14.40;99.90
14252;DHT22;7210;51.502;10.722;2022-10-16T03:06:37;14.40;99.90
14252;DHT22;7210;51.502;10.722;2022-10-16T03:09:05;14.40;99.90
14252;DHT22;7210;51.502;10.722;2022-10-16T03:11:32;14.30;99.90
14252;DHT22;7210;51.502;10.722;2022-10-16T03:13:59;14.30;99.90
14252;DHT22;7210;51.502;10.722;2022-10-16T03:16:27;14.20;99.90
14252;DHT22;7210;51.502;10.722;2022-10-16T03:18:55;14.10;99.90
14252;DHT22;7210;51.502;10.722;2022-10-16T03:21:22;14.10;99.90
14252;DHT22;7210;51.502;10.722;2022-10-16T03:23:50;14.00;99.90
14252;DHT22;7210;51.502;10.722;2022-10-16T03:26:17;14.00;99.90
14252;DHT22;7210;51.502;10.722;2022-10-16T03:28:50;13.90;99.90
14252;DHT22;7210;51.502;10.722;2022-10-16T03:31:17;13.90;99.90
14252;DHT22;7210;51.502;10.722;2022-10-16T03:33:45;13.80;99.90
14252;DHT22;7210;51.502;10.722;2022-10-16T03:36:13;13.80;99.90
14252;DHT22;7210;51.502;10.722;2022-10-16T03:38:41;13.70;99.90
14252;DHT22;7210;51.502;10.722;2022-10-16T03:41:08;13.70;99.90
14252;DHT22;7210;51.502;10.722;2022-10-16T03:43:35;13.60;99.90
14252;DHT22;7210;51.502;10.722;2022-10-16T03:46:03;13.60;99.90
14252;DHT22;7210;51.502;10.722;2022-10-16T03:48:30;13.50;99.90
14252;DHT22;7210;51.502;10.722;2022-10-16T03:50:58;13.50;99.90
14252;DHT22;7210;51.502;10.722;2022-10-16T03:53:26;13.40;99.90
14252;DHT22;7210;51.502;10.722;2022-10-16T03:55:54;13.40;99.90
14252;DHT22;7210;51.502;10.722;2022-10-16T03:58:21;13.40;99.90
14252;DHT22;7210;51.502;10.722;2022-10-16T04:00:48;13.40;99.90
14252;DHT22;7210;51.502;10.722;2022-10-16T04:03:16;13.40;99.90
14252;DHT22;7210;51.502;10.722;2022-10-16T04:05:44;13.40;99.90
14252;DHT22;7210;51.502;10.722;2022-10-16T04:08:11;13.30;99.90
14252;DHT22;7210;51.502;10.722;2022-10-16T04:10:42;13.30;99.90
14252;DHT22;7210;51.502;10.722;2022-10-16T04:13:09;13.30;99.90
14252;DHT22;7210;51.502;10.722;2022-10-16T04:15:37;13.30;99.90
14252;DHT22;7210;51.502;10.722;2022-10-16T04:18:05;13.30;99.90
14252;DHT22;7210;51.502;10.722;2022-10-16T04:20:33;13.20;99.90
14252;DHT22;7210;51.502;10.722;2022-10-16T04:23:00;13.20;99.90
14252;DHT22;7210;51.502;10.722;2022-10-16T04:25:28;13.20;99.90
14252;DHT22;7210;51.502;10.722;2022-10-16T04:27:57;13.10;99.90
14252;DHT22;7210;51.502;10.722;2022-10-16T04:30:25;13.10;99.90
14252;DHT22;7210;51.502;10.722;2022-10-16T04:32:52;13.00;99.90
14252;DHT22;7210;51.502;10.722;2022-10-16T04:35:21;13.00;99.90
14252;DHT22;7210;51.502;10.722;2022-10-16T04:37:48;12.90;99.90
14252;DHT22;7210;51.502;10.722;2022-10-16T04:40:16;12.90;99.90
14252;DHT22;7210;51.502;10.722;2022-10-16T04:42:43;12.80;99.90
14252;DHT22;7210;51.502;10.722;2022-10-16T04:45:12;12.80;99.90
14252;DHT22;7210;51.502;10.722;2022-10-16T04:47:39;12.80;99.90
14252;DHT22;7210;51.502;10.722;2022-10-16T04:50:07;12.70;99.90
14252;DHT22;7210;51.502;10.722;2022-10-16T04:52:35;12.70;99.90
14252;DHT22;7210;51.502;10.722;2022-10-16T04:55:02;12.70;99.90
14252;DHT22;7210;51.502;10.722;2022-10-16T04:57:30;12.70;99.90
14252;DHT22;7210;51.502;10.722;2022-10-16T04:59:59;12.60;99.90
14252;DHT22;7210;51.502;10.722;2022-10-16T05:02:27;12.70;99.90
14252;DHT22;7210;51.502;10.722;2022-10-16T05:04:54;12.60;99.90
14252;DHT22;7210;51.502;10.722;2022-10-16T05:07:22;12.60;99.90
14252;DHT22;7210;51.502;10.722;2022-10-16T05:09:49;12.50;99.90
14252;DHT22;7210;51.502;10.722;2022-10-16T05:12:16;12.50;99.90
14252;DHT22;7210;51.502;10.722;2022-10-16T05:14:44;12.50;99.90
14252;DHT22;7210;51.502;10.722;2022-10-16T05:17:11;12.50;99.90
14252;DHT22;7210;51.502;10.722;2022-10-16T05:19:40;12.60;99.90
14252;DHT22;7210;51.502;10.722;2022-10-16T05:22:08;12.70;99.90
14252;DHT22;7210;51.502;10.722;2022-10-16T05:24:38;12.80;99.90
14252;DHT22;7210;51.502;10.722;2022-10-16T05:27:05;12.90;99.90
14252;DHT22;7210;51.502;10.722;2022-10-16T05:29:33;12.90;99.90
14252;DHT22;7210;51.502;10.722;2022-10-16T05:32:00;12.90;99.90
14252;DHT22;7210;51.502;10.722;2022-10-16T05:34:28;13.00;99.90
14252;DHT22;7210;51.502;10.722;2022-10-16T05:36:57;13.00;99.90
14252;DHT22;7210;51.502;10.722;2022-10-16T05:39:24;13.00;99.90
14252;DHT22;7210;51.502;10.722;2022-10-16T05:41:51;13.10;99.90
14252;DHT22;7210;51.502;10.722;2022-10-16T05:44:19;13.10;99.90
14252;DHT22;7210;51.502;10.722;2022-10-16T05:46:46;13.20;99.90
14252;DHT22;7210;51.502;10.722;2022-10-16T05:49:14;13.20;99.90
14252;DHT22;7210;51.502;10.722;2022-10-16T05:51:44;13.30;99.90
14252;DHT22;7210;51.502;10.722;2022-10-16T05:54:13;13.30;99.90
14252;DHT22;7210;51.502;10.722;2022-10-16T05:56:40;13.30;99.90
14252;DHT22;7210;51.502;10.722;2022-10-16T05:59:08;13.30;99.90
14252;DHT22;7210;51.502;10.722;2022-10-16T06:01:38;13.20;99.90
14252;DHT22;7210;51.502;10.722;2022-10-16T06:04:05;13.20;99.90
14252;DHT22;7210;51.502;10.722;2022-10-16T06:06:33;13.20;99.90
14252;DHT22;7210;51.502;10.722;2022-10-16T06:09:02;13.20;99.90
14252;DHT22;7210;51.502;10.722;2022-10-16T06:11:33;13.30;99.90
14252;DHT22;7210;51.502;10.722;2022-10-16T06:14:01;13.30;99.90
14252;DHT22;7210;51.502;10.722;2022-10-16T06:16:33;13.20;99.90
14252;DHT22;7210;51.502;10.722;2022-10-16T06:19:01;13.20;99.90
14252;DHT22;7210;51.502;10.722;2022-10-16T06:21:32;13.20;99.90
14252;DHT22;7210;51.502;10.722;2022-10-16T06:23:59;13.20;99.90
14252;DHT22;7210;51.502;10.722;2022-10-16T06:26:28;13.20;99.90
14252;DHT22;7210;51.502;10.722;2022-10-16T06:28:59;13.20;99.90
14252;DHT22;7210;51.502;10.722;2022-10-16T06:31:27;13.10;99.90
14252;DHT22;7210;51.502;10.722;2022-10-16T06:33:57;13.20;99.90
14252;DHT22;7210;51.502;10.722;2022-10-16T06:36:25;13.20;99.90
14252;DHT22;7210;51.502;10.722;2022-10-16T06:38:53;13.20;99.90
14252;DHT22;7210;51.502;10.722;2022-10-16T06:41:23;13.20;99.90
14252;DHT22;7210;51.502;10.722;2022-10-16T06:43:51;13.30;99.90
14252;DHT22;7210;51.502;10.722;2022-10-16T06:46:22;13.30;99.90
14252;DHT22;7210;51.502;10.722;2022-10-16T06:48:56;13.40;99.90
14252;DHT22;7210;51.502;10.722;2022-10-16T06:51:24;13.50;99.90
14252;DHT22;7210;51.502;10.722;2022-10-16T06:53:53;13.50;99.90
14252;DHT22;7210;51.502;10.722;2022-10-16T06:56:24;13.60;99.90
14252;DHT22;7210;51.502;10.722;2022-10-16T06:58:53;13.60;99.90
14252;DHT22;7210;51.502;10.722;2022-10-16T07:01:23;13.60;99.90
14252;DHT22;7210;51.502;10.722;2022-10-16T07:03:51;13.70;99.90
14252;DHT22;7210;51.502;10.722;2022-10-16T07:06:20;13.90;99.90
14252;DHT22;7210;51.502;10.722;2022-10-16T07:08:50;14.00;99.90
14252;DHT22;7210;51.502;10.722;2022-10-16T07:11:19;14.10;99.90
14252;DHT22;7210;51.502;10.722;2022-10-16T07:13:48;14.20;99.90
14252;DHT22;7210;51.502;10.722;2022-10-16T07:16:18;14.40;99.90
14252;DHT22;7210;51.502;10.722;2022-10-16T07:18:48;14.50;99.90
14252;DHT22;7210;51.502;10.722;2022-10-16T07:21:19;14.70;99.90
14252;DHT22;7210;51.502;10.722;2022-10-16T07:23:50;14.80;99.90
14252;DHT22;7210;51.502;10.722;2022-10-16T07:26:18;15.00;99.90
14252;DHT22;7210;51.502;10.722;2022-10-16T07:28:45;15.10;99.90
14252;DHT22;7210;51.502;10.722;2022-10-16T07:31:16;15.20;99.90
14252;DHT22;7210;51.502;10.722;2022-10-16T07:33:48;15.30;99.90
14252;DHT22;7210;51.502;10.722;2022-10-16T07:36:19;15.30;99.90
14252;DHT22;7210;51.502;10.722;2022-10-16T07:38:48;15.40;99.90
14252;DHT22;7210;51.502;10.722;2022-10-16T07:41:17;15.50;99.90
14252;DHT22;7210;51.502;10.722;2022-10-16T07:43:46;15.60;99.90
14252;DHT22;7210;51.502;10.722;2022-10-16T07:46:14;15.60;99.90
14252;DHT22;7210;51.502;10.722;2022-10-16T07:48:42;15.80;99.90
14252;DHT22;7210;51.502;10.722;2022-10-16T07:51:15;15.80;99.90
14252;DHT22;7210;51.502;10.722;2022-10-16T07:53:44;15.90;99.90
14252;DHT22;7210;51.502;10.722;2022-10-16T07:56:12;15.90;99.90
14252;DHT22;7210;51.502;10.722;2022-10-16T07:58:40;16.00;99.90
14252;DHT22;7210;51.502;10.722;2022-10-16T08:01:09;16.00;99.90
14252;DHT22;7210;51.502;10.722;2022-10-16T08:03:41;16.00;99.90
14252;DHT22;7210;51.502;10.722;2022-10-16T08:06:08;16.00;99.90
14252;DHT22;7210;51.502;10.722;2022-10-16T08:08:37;16.10;99.90
14252;DHT22;7210;51.502;10.722;2022-10-16T08:11:05;16.20;99.90
14252;DHT22;7210;51.502;10.722;2022-10-16T08:13:32;16.20;99.90
14252;DHT22;7210;51.502;10.722;2022-10-16T08:16:00;16.20;99.90
14252;DHT22;7210;51.502;10.722;2022-10-16T08:18:29;16.20;99.90
14252;DHT22;7210;51.502;10.722;2022-10-16T08:20:57;16.20;99.90
14252;DHT22;7210;51.502;10.722;2022-10-16T08:23:26;16.20;1.00
14252;DHT22;7210;51.502;10.722;2022-10-16T08:25:56;16.20;1.00
14252;DHT22;7210;51.502;10.722;2022-10-16T08:28:28;16.30;1.00
14252;DHT22;7210;51.502;10.722;2022-10-16T08:30:56;16.30;1.00
14252;DHT22;7210;51.502;10.722;2022-10-16T08:33:23;16.30;1.00
14252;DHT22;7210;51.502;10.722;2022-10-16T08:35:51;16.30;1.00
14252;DHT22;7210;51.502;10.722;2022-10-16T08:38:20;16.40;1.00
14252;DHT22;7210;51.502;10.722;2022-10-16T08:40:48;16.40;1.00
14252;DHT22;7210;51.502;10.722;2022-10-16T08:43:34;16.50;1.00
14252;DHT22;7210;51.502;10.722;2022-10-16T08:46:20;16.60;1.00
14252;DHT22;7210;51.502;10.722;2022-10-16T08:48:58;16.70;1.00
14252;DHT22;7210;51.502;10.722;2022-10-16T08:51:29;16.90;1.00
14252;DHT22;7210;51.502;10.722;2022-10-16T08:54:01;17.00;1.00
14252;DHT22;7210;51.502;10.722;2022-10-16T08:56:31;16.90;1.00
14252;DHT22;7210;51.502;10.722;2022-10-16T08:59:00;16.90;1.00
14252;DHT22;7210;51.502;10.722;2022-10-16T09:01:40;16.90;1.00
14252;DHT22;7210;51.502;10.722;2022-10-16T09:04:49;16.90;1.00
14252;DHT22;7210;51.502;10.722;2022-10-16T09:07:28;17.00;1.00
14252;DHT22;7210;51.502;10.722;2022-10-16T09:10:13;17.00;1.00
14252;DHT22;7210;51.502;10.722;2022-10-16T09:12:55;17.00;1.00
14252;DHT22;7210;51.502;10.722;2022-10-16T09:15:35;17.10;1.00
14252;DHT22;7210;51.502;10.722;2022-10-16T09:18:12;17.10;1.00
14252;DHT22;7210;51.502;10.722;2022-10-16T09:20:49;17.10;1.00
14252;DHT22;7210;51.502;10.722;2022-10-16T09:23:26;17.10;1.00
14252;DHT22;7210;51.502;10.722;2022-10-16T09:25:55;17.10;1.00
14252;DHT22;7210;51.502;10.722;2022-10-16T09:28:25;17.10;1.00
14252;DHT22;7210;51.502;10.722;2022-10-16T09:30:57;17.10;1.00
14252;DHT22;7210;51.502;10.722;2022-10-16T09:33:29;17.10;1.00
14252;DHT22;7210;51.502;10.722;2022-10-16T09:36:03;17.20;1.00
14252;DHT22;7210;51.502;10.722;2022-10-16T09:38:34;17.30;1.00
14252;DHT22;7210;51.502;10.722;2022-10-16T09:41:10;17.30;1.00
14252;DHT22;7210;51.502;10.722;2022-10-16T09:43:47;17.40;1.00
14252;DHT22;7210;51.502;10.722;2022-10-16T09:46:26;17.50;1.00
14252;DHT22;7210;51.502;10.722;2022-10-16T09:48:57;17.50;1.00
14252;DHT22;7210;51.502;10.722;2022-10-16T09:51:28;17.50;1.00
14252;DHT22;7210;51.502;10.722;2022-10-16T09:53:59;17.60;1.00
14252;DHT22;7210;51.502;10.722;2022-10-16T09:56:30;17.60;1.00
14252;DHT22;7210;51.502;10.722;2022-10-16T09:59:00;17.70;1.00
14252;DHT22;7210;51.502;10.722;2022-10-16T10:01:36;17.70;1.00
14252;DHT22;7210;51.502;10.722;2022-10-16T10:04:06;17.70;1.00
14252;DHT22;7210;51.502;10.722;2022-10-16T10:06:36;17.80;1.00
14252;DHT22;7210;51.502;10.722;2022-10-16T10:09:17;18.10;1.00
14252;DHT22;7210;51.502;10.722;2022-10-16T10:11:51;18.20;1.00
14252;DHT22;7210;51.502;10.722;2022-10-16T10:14:30;18.20;1.00
14252;DHT22;7210;51.502;10.722;2022-10-16T10:17:15;18.40;1.00
14252;DHT22;7210;51.502;10.722;2022-10-16T10:19:50;18.50;1.00
14252;DHT22;7210;51.502;10.722;2022-10-16T10:22:24;18.60;1.00
14252;DHT22;7210;51.502;10.722;2022-10-16T10:24:56;18.50;1.00
14252;DHT22;7210;51.502;10.722;2022-10-16T10:27:35;18.50;1.00
14252;DHT22;7210;51.502;10.722;2022-10-16T10:30:18;18.50;1.00
14252;DHT22;7210;51.502;10.722;2022-10-16T10:33:07;18.50;1.00
14252;DHT22;7210;51.502;10.722;2022-10-16T10:35:46;18.60;1.00
14252;DHT22;7210;51.502;10.722;2022-10-16T10:38:34;18.60;1.00
14252;DHT22;7210;51.502;10.722;2022-10-16T10:41:29;18.60;1.00
14252;DHT22;7210;51.502;10.722;2022-10-16T10:44:42;18.60;1.00
14252;DHT22;7210;51.502;10.722;2022-10-16T10:47:29;18.60;1.00
14252;DHT22;7210;51.502;10.722;2022-10-16T10:50:14;18.60;1.00
14252;DHT22;7210;51.502;10.722;2022-10-16T10:52:58;18.70;1.00
14252;DHT22;7210;51.502;10.722;2022-10-16T10:55:37;18.90;1.00
14252;DHT22;7210;51.502;10.722;2022-10-16T11:01:26;19.00;1.00
14252;DHT22;7210;51.502;10.722;2022-10-16T11:04:20;19.10;1.00
14252;DHT22;7210;51.502;10.722;2022-10-16T11:07:17;19.00;1.00
14252;DHT22;7210;51.502;10.722;2022-10-16T11:09:51;18.90;1.00
14252;DHT22;7210;51.502;10.722;2022-10-16T11:12:26;18.80;1.00
14252;DHT22;7210;51.502;10.722;2022-10-16T11:15:03;18.70;1.00
14252;DHT22;7210;51.502;10.722;2022-10-16T11:17:40;18.70;1.00
14252;DHT22;7210;51.502;10.722;2022-10-16T11:20:15;18.70;1.00
14252;DHT22;7210;51.502;10.722;2022-10-16T11:22:51;18.90;1.00
14252;DHT22;7210;51.502;10.722;2022-10-16T11:25:26;19.00;1.00
14252;DHT22;7210;51.502;10.722;2022-10-16T11:27:58;19.10;1.00
14252;DHT22;7210;51.502;10.722;2022-10-16T11:30:39;19.10;1.00
14252;DHT22;7210;51.502;10.722;2022-10-16T11:33:27;19.20;1.00
14252;DHT22;7210;51.502;10.722;2022-10-16T11:36:11;19.10;1.00
14252;DHT22;7210;51.502;10.722;2022-10-16T11:38:49;19.00;1.00
14252;DHT22;7210;51.502;10.722;2022-10-16T11:41:27;19.00;1.00
14252;DHT22;7210;51.502;10.722;2022-10-16T11:44:14;19.10;1.00
14252;DHT22;7210;51.502;10.722;2022-10-16T11:46:52;19.10;1.00
14252;DHT22;7210;51.502;10.722;2022-10-16T11:49:31;19.20;1.00
14252;DHT22;7210;51.502;10.722;2022-10-16T11:52:07;19.30;1.00
14252;DHT22;7210;51.502;10.722;2022-10-16T11:54:47;19.40;1.00
14252;DHT22;7210;51.502;10.722;2022-10-16T11:57:24;19.50;1.00
14252;DHT22;7210;51.502;10.722;2022-10-16T11:59:57;19.60;1.00
14252;DHT22;7210;51.502;10.722;2022-10-16T12:02:48;19.60;1.00
14252;DHT22;7210;51.502;10.722;2022-10-16T12:05:27;19.70;1.00
14252;DHT22;7210;51.502;10.722;2022-10-16T12:08:09;19.70;1.00
14252;DHT22;7210;51.502;10.722;2022-10-16T12:10:41;19.80;1.00
14252;DHT22;7210;51.502;10.722;2022-10-16T12:13:28;19.90;1.00
14252;DHT22;7210;51.502;10.722;2022-10-16T12:16:20;19.90;1.00
14252;DHT22;7210;51.502;10.722;2022-10-16T12:19:08;19.90;1.00
14252;DHT22;7210;51.502;10.722;2022-10-16T12:21:38;19.90;1.00
14252;DHT22;7210;51.502;10.722;2022-10-16T12:24:06;20.00;1.00
14252;DHT22;7210;51.502;10.722;2022-10-16T12:26:52;20.00;1.00
14252;DHT22;7210;51.502;10.722;2022-10-16T12:29:28;20.10;1.00
14252;DHT22;7210;51.502;10.722;2022-10-16T12:32:00;20.10;1.00
14252;DHT22;7210;51.502;10.722;2022-10-16T12:34:32;20.10;1.00
14252;DHT22;7210;51.502;10.722;2022-10-16T12:37:10;20.10;1.00
14252;DHT22;7210;51.502;10.722;2022-10-16T12:39:41;20.10;1.00
14252;DHT22;7210;51.502;10.722;2022-10-16T12:42:33;20.10;1.00
14252;DHT22;7210;51.502;10.722;2022-10-16T12:45:12;20.20;1.00
14252;DHT22;7210;51.502;10.722;2022-10-16T12:47:52;20.30;1.00
14252;DHT22;7210;51.502;10.722;2022-10-16T12:50:28;20.30;1.00
14252;DHT22;7210;51.502;10.722;2022-10-16T12:52:58;20.30;1.00
14252;DHT22;7210;51.502;10.722;2022-10-16T12:55:26;20.20;1.00
14252;DHT22;7210;51.502;10.722;2022-10-16T12:58:18;20.20;1.00
14252;DHT22;7210;51.502;10.722;2022-10-16T13:00:57;20.10;1.00
14252;DHT22;7210;51.502;10.722;2022-10-16T13:03:54;20.20;1.00
14252;DHT22;7210;51.502;10.722;2022-10-16T13:06:41;20.10;1.00
14252;DHT22;7210;51.502;10.722;2022-10-16T13:09:24;20.10;1.00
14252;DHT22;7210;51.502;10.722;2022-10-16T13:12:11;20.10;1.00
14252;DHT22;7210;51.502;10.722;2022-10-16T13:15:14;19.90;1.00
14252;DHT22;7210;51.502;10.722;2022-10-16T13:17:57;20.00;1.00
14252;DHT22;7210;51.502;10.722;2022-10-16T13:23:33;19.90;1.00
14252;DHT22;7210;51.502;10.722;2022-10-16T13:26:14;19.90;1.00
14252;DHT22;7210;51.502;10.722;2022-10-16T13:28:49;19.90;1.00
14252;DHT22;7210;51.502;10.722;2022-10-16T13:31:21;19.90;1.00
14252;DHT22;7210;51.502;10.722;2022-10-16T13:33:52;19.90;1.00
14252;DHT22;7210;51.502;10.722;2022-10-16T13:36:23;19.90;1.00
14252;DHT22;7210;51.502;10.722;2022-10-16T13:39:03;20.00;1.00
14252;DHT22;7210;51.502;10.722;2022-10-16T13:41:37;20.00;1.00
14252;DHT22;7210;51.502;10.722;2022-10-16T13:44:07;20.00;1.00
14252;DHT22;7210;51.502;10.722;2022-10-16T13:46:42;20.00;1.00
14252;DHT22;7210;51.502;10.722;2022-10-16T13:49:14;20.10;1.00
14252;DHT22;7210;51.502;10.722;2022-10-16T13:51:54;20.10;1.00
14252;DHT22;7210;51.502;10.722;2022-10-16T13:54:23;20.00;1.00
14252;DHT22;7210;51.502;10.722;2022-10-16T13:56:52;20.00;1.00
14252;DHT22;7210;51.502;10.722;2022-10-16T13:59:24;20.10;1.00
14252;DHT22;7210;51.502;10.722;2022-10-16T14:01:56;20.10;1.00
14252;DHT22;7210;51.502;10.722;2022-10-16T14:04:32;20.10;1.00
14252;DHT22;7210;51.502;10.722;2022-10-16T14:07:00;20.10;1.00
14252;DHT22;7210;51.502;10.722;2022-10-16T14:09:29;20.00;1.00
14252;DHT22;7210;51.502;10.722;2022-10-16T14:11:59;19.80;1.00
14252;DHT22;7210;51.502;10.722;2022-10-16T14:14:35;19.80;1.00
14252;DHT22;7210;51.502;10.722;2022-10-16T14:17:15;19.70;1.00
14252;DHT22;7210;51.502;10.722;2022-10-16T14:19:46;19.70;1.00
14252;DHT22;7210;51.502;10.722;2022-10-16T14:22:26;19.70;1.00
14252;DHT22;7210;51.502;10.722;2022-10-16T14:24:56;19.60;1.00
14252;DHT22;7210;51.502;10.722;2022-10-16T14:27:29;19.50;1.00
14252;DHT22;7210;51.502;10.722;2022-10-16T14:30:17;19.60;1.00
14252;DHT22;7210;51.502;10.722;2022-10-16T14:32:55;19.50;1.00
14252;DHT22;7210;51.502;10.722;2022-10-16T14:35:26;19.40;1.00
14252;DHT22;7210;51.502;10.722;2022-10-16T14:37:58;19.40;1.00
14252;DHT22;7210;51.502;10.722;2022-10-16T14:40:29;19.30;1.00
14252;DHT22;7210;51.502;10.722;2022-10-16T14:42:59;19.30;1.00
14252;DHT22;7210;51.502;10.722;2022-10-16T14:45:30;19.30;1.00
14252;DHT22;7210;51.502;10.722;2022-10-16T14:48:04;19.20;1.00
14252;DHT22;7210;51.502;10.722;2022-10-16T14:50:41;19.10;1.00
14252;DHT22;7210;51.502;10.722;2022-10-16T14:53:11;19.00;1.00
14252;DHT22;7210;51.502;10.722;2022-10-16T14:55:39;18.90;1.00
14252;DHT22;7210;51.502;10.722;2022-10-16T14:58:11;18.80;1.00
14252;DHT22;7210;51.502;10.722;2022-10-16T15:00:41;18.70;1.00
14252;DHT22;7210;51.502;10.722;2022-10-16T15:03:11;18.60;1.00
14252;DHT22;7210;51.502;10.722;2022-10-16T15:05:39;18.50;1.00
14252;DHT22;7210;51.502;10.722;2022-10-16T15:08:06;18.50;1.00
14252;DHT22;7210;51.502;10.722;2022-10-16T15:10:39;18.50;1.00
14252;DHT22;7210;51.502;10.722;2022-10-16T15:13:12;18.40;1.00
14252;DHT22;7210;51.502;10.722;2022-10-16T15:15:43;18.50;1.00
14252;DHT22;7210;51.502;10.722;2022-10-16T15:18:12;18.40;1.00
14252;DHT22;7210;51.502;10.722;2022-10-16T15:20:47;18.40;1.00
14252;DHT22;7210;51.502;10.722;2022-10-16T15:23:17;18.30;1.00
14252;DHT22;7210;51.502;10.722;2022-10-16T15:25:46;18.20;1.00
14252;DHT22;7210;51.502;10.722;2022-10-16T15:28:16;18.10;1.00
14252;DHT22;7210;51.502;10.722;2022-10-16T15:30:45;18.10;1.00
14252;DHT22;7210;51.502;10.722;2022-10-16T15:33:16;18.00;1.00
14252;DHT22;7210;51.502;10.722;2022-10-16T15:35:46;17.90;1.00
14252;DHT22;7210;51.502;10.722;2022-10-16T15:38:15;17.80;1.00
14252;DHT22;7210;51.502;10.722;2022-10-16T15:40:43;17.60;1.00
14252;DHT22;7210;51.502;10.722;2022-10-16T15:43:11;17.50;1.00
14252;DHT22;7210;51.502;10.722;2022-10-16T15:45:38;17.40;1.00
14252;DHT22;7210;51.502;10.722;2022-10-16T15:48:08;17.30;1.00
14252;DHT22;7210;51.502;10.722;2022-10-16T15:50:40;17.20;1.00
14252;DHT22;7210;51.502;10.722;2022-10-16T15:53:08;17.10;1.00
14252;DHT22;7210;51.502;10.722;2022-10-16T15:55:35;17.10;1.00
14252;DHT22;7210;51.502;10.722;2022-10-16T15:58:03;17.00;1.00
14252;DHT22;7210;51.502;10.722;2022-10-16T16:00:31;17.00;1.00
14252;DHT22;7210;51.502;10.722;2022-10-16T16:02:59;16.90;1.00
14252;DHT22;7210;51.502;10.722;2022-10-16T16:05:26;16.80;1.00
14252;DHT22;7210;51.502;10.722;2022-10-16T16:07:55;16.70;1.00
14252;DHT22;7210;51.502;10.722;2022-10-16T16:10:23;16.60;1.00
14252;DHT22;7210;51.502;10.722;2022-10-16T16:12:51;16.50;1.00
14252;DHT22;7210;51.502;10.722;2022-10-16T16:15:19;16.40;1.00
14252;DHT22;7210;51.502;10.722;2022-10-16T16:17:47;16.30;1.00